sensor_id;sensor_type;location;lat;lon;timestamp;temperature;humidity
25877;DHT22;13692;47.480;19.216;2023-11-21T00:01:07;6.10;99.90
25877;DHT22;13692;47.480;19.216;2023-11-21T00:03:36;6.10;99.90
25877;DHT22;13692;47.480;19.216;2023-11-21T00:06:03;6.00;99.90
25877;DHT22;13692;47.480;19.216;2023-11-21T00:08:30;5.90;99.90
25877;DHT22;13692;47.480;19.216;2023-11-21T00:10:57;5.90;99.90
25877;DHT22;13692;47.480;19.216;2023-11-21T00:13:27;5.90;99.90
25877;DHT22;13692;47.480;19.216;2023-11-21T00:15:54;5.80;99.90
25877;DHT22;13692;47.480;19.216;2023-11-21T00:18:21;5.70;99.90
25877;DHT22;13692;47.480;19.216;2023-11-21T00:20:48;5.70;99.90
25877;DHT22;13692;47.480;19.216;2023-11-21T00:23:15;5.70;99.90
25877;DHT22;13692;47.480;19.216;2023-11-21T00:25:42;5.70;99.90
25877;DHT22;13692;47.480;19.216;2023-11-21T00:28:09;5.70;99.90
25877;DHT22;13692;47.480;19.216;2023-11-21T00:30:36;5.70;99.90
25877;DHT22;13692;47.480;19.216;2023-11-21T00:33:02;5.70;99.90
25877;DHT22;13692;47.480;19.216;2023-11-21T00:35:31;5.70;99.90
25877;DHT22;13692;47.480;19.216;2023-11-21T00:37:58;5.70;99.90
25877;DHT22;13692;47.480;19.216;2023-11-21T00:40:25;5.60;99.90
25877;DHT22;13692;47.480;19.216;2023-11-21T00:42:52;5.50;99.90
25877;DHT22;13692;47.480;19.216;2023-11-21T00:45:19;5.50;99.90
25877;DHT22;13692;47.480;19.216;2023-11-21T00:47:45;5.40;99.90
25877;DHT22;13692;47.480;19.216;2023-11-21T00:50:12;5.50;99.90
25877;DHT22;13692;47.480;19.216;2023-11-21T00:52:39;5.50;99.90
25877;DHT22;13692;47.480;19.216;2023-11-21T00:55:07;5.50;99.90
25877;DHT22;13692;47.480;19.216;2023-11-21T00:57:35;5.60;99.90
25877;DHT22;13692;47.480;19.216;2023-11-21T01:00:02;5.60;99.90
25877;DHT22;13692;47.480;19.216;2023-11-21T01:02:33;5.60;99.90
25877;DHT22;13692;47.480;19.216;2023-11-21T01:05:03;5.60;99.90
25877;DHT22;13692;47.480;19.216;2023-11-21T01:07:30;5.60;99.90
25877;DHT22;13692;47.480;19.216;2023-11-21T01:09:57;5.60;99.90
25877;DHT22;13692;47.480;19.216;2023-11-21T01:12:24;5.60;99.90
25877;DHT22;13692;47.480;19.216;2023-11-21T01:14:52;5.60;99.90
25877;DHT22;13692;47.480;19.216;2023-11-21T01:17:19;5.50;99.90
25877;DHT22;13692;47.480;19.216;2023-11-21T01:19:46;5.50;99.90
25877;DHT22;13692;47.480;19.216;2023-11-21T01:22:13;5.50;99.90
25877;DHT22;13692;47.480;19.216;2023-11-21T01:24:40;5.40;99.90
25877;DHT22;13692;47.480;19.216;2023-11-21T01:27:07;5.50;99.90
25877;DHT22;13692;47.480;19.216;2023-11-21T01:29:35;5.50;99.90
25877;DHT22;13692;47.480;19.216;2023-11-21T01:32:03;5.50;99.90
25877;DHT22;13692;47.480;19.216;2023-11-21T01:34:30;5.40;99.90
25877;DHT22;13692;47.480;19.216;2023-11-21T01:36:57;5.50;99.90
25877;DHT22;13692;47.480;19.216;2023-11-21T01:39:25;5.50;99.90
25877;DHT22;13692;47.480;19.216;2023-11-21T01:41:53;5.40;99.90
25877;DHT22;13692;47.480;19.216;2023-11-21T01:44:20;5.40;99.90
25877;DHT22;13692;47.480;19.216;2023-11-21T01:46:47;5.40;99.90
25877;DHT22;13692;47.480;19.216;2023-11-21T01:49:15;5.40;99.90
25877;DHT22;13692;47.480;19.216;2023-11-21T01:51:47;5.40;99.90
25877;DHT22;13692;47.480;19.216;2023-11-21T01:54:16;5.40;99.90
25877;DHT22;13692;47.480;19.216;2023-11-21T01:56:46;5.40;99.90
25877;DHT22;13692;47.480;19.216;2023-11-21T01:59:21;5.30;99.90
25877;DHT22;13692;47.480;19.216;2023-11-21T02:01:48;5.30;99.90
25877;DHT22;13692;47.480;19.216;2023-11-21T02:04:18;5.30;99.90
25877;DHT22;13692;47.480;19.216;2023-11-21T02:06:46;5.40;99.90
25877;DHT22;13692;47.480;19.216;2023-11-21T02:09:13;5.40;99.90
25877;DHT22;13692;47.480;19.216;2023-11-21T02:11:42;5.40;99.90
25877;DHT22;13692;47.480;19.216;2023-11-21T02:14:09;5.40;99.90
25877;DHT22;13692;47.480;19.216;2023-11-21T02:16:36;5.40;99.90
25877;DHT22;13692;47.480;19.216;2023-11-21T02:19:07;5.30;99.90
25877;DHT22;13692;47.480;19.216;2023-11-21T02:21:36;5.30;99.90
25877;DHT22;13692;47.480;19.216;2023-11-21T02:24:07;5.30;99.90
25877;DHT22;13692;47.480;19.216;2023-11-21T02:26:34;5.30;99.90
25877;DHT22;13692;47.480;19.216;2023-11-21T02:29:01;5.20;99.90
25877;DHT22;13692;47.480;19.216;2023-11-21T02:31:31;5.20;99.90
25877;DHT22;13692;47.480;19.216;2023-11-21T02:33:59;5.20;99.90
25877;DHT22;13692;47.480;19.216;2023-11-21T02:36:26;5.20;99.90
25877;DHT22;13692;47.480;19.216;2023-11-21T02:38:53;5.20;99.90
25877;DHT22;13692;47.480;19.216;2023-11-21T02:41:20;5.20;99.90
25877;DHT22;13692;47.480;19.216;2023-11-21T02:43:47;5.30;99.90
25877;DHT22;13692;47.480;19.216;2023-11-21T02:46:14;5.30;99.90
25877;DHT22;13692;47.480;19.216;2023-11-21T02:48:41;5.30;99.90
25877;DHT22;13692;47.480;19.216;2023-11-21T02:51:08;5.30;99.90
25877;DHT22;13692;47.480;19.216;2023-11-21T02:53:35;5.30;99.90
25877;DHT22;13692;47.480;19.216;2023-11-21T02:56:02;5.30;99.90
25877;DHT22;13692;47.480;19.216;2023-11-21T02:58:29;5.30;99.90
25877;DHT22;13692;47.480;19.216;2023-11-21T03:00:56;5.30;99.90
25877;DHT22;13692;47.480;19.216;2023-11-21T03:03:23;5.30;99.90
25877;DHT22;13692;47.480;19.216;2023-11-21T03:05:51;5.30;99.90
25877;DHT22;13692;47.480;19.216;2023-11-21T03:08:18;5.30;99.90
25877;DHT22;13692;47.480;19.216;2023-11-21T03:10:45;5.30;99.90
25877;DHT22;13692;47.480;19.216;2023-11-21T03:13:12;5.20;99.90
25877;DHT22;13692;47.480;19.216;2023-11-21T03:15:39;5.30;99.90
25877;DHT22;13692;47.480;19.216;2023-11-21T03:18:06;5.30;99.90
25877;DHT22;13692;47.480;19.216;2023-11-21T03:20:34;5.20;99.90
25877;DHT22;13692;47.480;19.216;2023-11-21T03:23:02;5.20;99.90
25877;DHT22;13692;47.480;19.216;2023-11-21T03:25:30;5.20;99.90
25877;DHT22;13692;47.480;19.216;2023-11-21T03:27:57;5.20;99.90
25877;DHT22;13692;47.480;19.216;2023-11-21T03:30:24;5.30;99.90
25877;DHT22;13692;47.480;19.216;2023-11-21T03:32:52;5.30;99.90
25877;DHT22;13692;47.480;19.216;2023-11-21T03:35:19;5.30;99.90
25877;DHT22;13692;47.480;19.216;2023-11-21T03:37:47;5.20;99.90
25877;DHT22;13692;47.480;19.216;2023-11-21T03:40:14;5.30;99.90
25877;DHT22;13692;47.480;19.216;2023-11-21T03:42:41;5.30;99.90
25877;DHT22;13692;47.480;19.216;2023-11-21T03:45:09;5.30;99.90
25877;DHT22;13692;47.480;19.216;2023-11-21T03:47:36;5.20;99.90
25877;DHT22;13692;47.480;19.216;2023-11-21T03:50:03;5.20;99.90
25877;DHT22;13692;47.480;19.216;2023-11-21T03:52:30;5.20;99.90
25877;DHT22;13692;47.480;19.216;2023-11-21T03:54:57;5.20;99.90
25877;DHT22;13692;47.480;19.216;2023-11-21T03:57:24;5.30;99.90
25877;DHT22;13692;47.480;19.216;2023-11-21T03:59:51;5.20;99.90
25877;DHT22;13692;47.480;19.216;2023-11-21T04:02:18;5.20;99.90
25877;DHT22;13692;47.480;19.216;2023-11-21T04:04:45;5.20;99.90
25877;DHT22;13692;47.480;19.216;2023-11-21T04:07:12;5.20;99.90
25877;DHT22;13692;47.480;19.216;2023-11-21T04:09:40;5.20;99.90
25877;DHT22;13692;47.480;19.216;2023-11-21T04:12:08;5.20;99.90
25877;DHT22;13692;47.480;19.216;2023-11-21T04:14:38;5.20;99.90
25877;DHT22;13692;47.480;19.216;2023-11-21T04:17:05;5.20;99.90
25877;DHT22;13692;47.480;19.216;2023-11-21T04:19:32;5.20;99.90
25877;DHT22;13692;47.480;19.216;2023-11-21T04:21:59;5.20;99.90
25877;DHT22;13692;47.480;19.216;2023-11-21T04:24:25;5.20;99.90
25877;DHT22;13692;47.480;19.216;2023-11-21T04:26:52;5.20;99.90
25877;DHT22;13692;47.480;19.216;2023-11-21T04:29:20;5.20;99.90
25877;DHT22;13692;47.480;19.216;2023-11-21T04:31:47;5.20;99.90
25877;DHT22;13692;47.480;19.216;2023-11-21T04:34:15;5.20;99.90
25877;DHT22;13692;47.480;19.216;2023-11-21T04:36:43;5.20;99.90
25877;DHT22;13692;47.480;19.216;2023-11-21T04:39:10;5.20;99.90
25877;DHT22;13692;47.480;19.216;2023-11-21T04:41:38;5.20;99.90
25877;DHT22;13692;47.480;19.216;2023-11-21T04:44:06;5.20;99.90
25877;DHT22;13692;47.480;19.216;2023-11-21T04:46:33;5.20;99.90
25877;DHT22;13692;47.480;19.216;2023-11-21T04:49:00;5.20;99.90
25877;DHT22;13692;47.480;19.216;2023-11-21T04:51:27;5.20;99.90
25877;DHT22;13692;47.480;19.216;2023-11-21T04:53:54;5.20;99.90
25877;DHT22;13692;47.480;19.216;2023-11-21T04:56:21;5.20;99.90
25877;DHT22;13692;47.480;19.216;2023-11-21T04:58:48;5.20;99.90
25877;DHT22;13692;47.480;19.216;2023-11-21T05:01:15;5.30;99.90
25877;DHT22;13692;47.480;19.216;2023-11-21T05:03:42;5.20;99.90
25877;DHT22;13692;47.480;19.216;2023-11-21T05:06:10;5.20;99.90
25877;DHT22;13692;47.480;19.216;2023-11-21T05:08:37;5.20;99.90
25877;DHT22;13692;47.480;19.216;2023-11-21T05:11:04;5.30;99.90
25877;DHT22;13692;47.480;19.216;2023-11-21T05:13:34;5.30;99.90
25877;DHT22;13692;47.480;19.216;2023-11-21T05:16:01;5.30;99.90
25877;DHT22;13692;47.480;19.216;2023-11-21T05:18:32;5.30;99.90
25877;DHT22;13692;47.480;19.216;2023-11-21T05:20:59;5.30;99.90
25877;DHT22;13692;47.480;19.216;2023-11-21T05:23:26;5.40;99.90
25877;DHT22;13692;47.480;19.216;2023-11-21T05:25:53;5.40;99.90
25877;DHT22;13692;47.480;19.216;2023-11-21T05:28:20;5.40;99.90
25877;DHT22;13692;47.480;19.216;2023-11-21T05:30:47;5.40;99.90
25877;DHT22;13692;47.480;19.216;2023-11-21T05:33:14;5.40;99.90
25877;DHT22;13692;47.480;19.216;2023-11-21T05:35:41;5.30;99.90
25877;DHT22;13692;47.480;19.216;2023-11-21T05:38:08;5.20;99.90
25877;DHT22;13692;47.480;19.216;2023-11-21T05:40:35;5.30;99.90
25877;DHT22;13692;47.480;19.216;2023-11-21T05:43:03;5.40;99.90
25877;DHT22;13692;47.480;19.216;2023-11-21T05:45:32;5.50;99.90
25877;DHT22;13692;47.480;19.216;2023-11-21T05:47:59;5.50;99.90
25877;DHT22;13692;47.480;19.216;2023-11-21T05:50:26;5.60;99.90
25877;DHT22;13692;47.480;19.216;2023-11-21T05:52:53;5.60;99.90
25877;DHT22;13692;47.480;19.216;2023-11-21T05:55:23;5.60;99.90
25877;DHT22;13692;47.480;19.216;2023-11-21T05:57:52;5.70;99.90
25877;DHT22;13692;47.480;19.216;2023-11-21T06:00:20;5.70;99.90
25877;DHT22;13692;47.480;19.216;2023-11-21T06:02:52;5.70;99.90
25877;DHT22;13692;47.480;19.216;2023-11-21T06:05:23;5.60;99.90
25877;DHT22;13692;47.480;19.216;2023-11-21T06:07:51;5.60;99.90
25877;DHT22;13692;47.480;19.216;2023-11-21T06:10:22;5.70;99.90
25877;DHT22;13692;47.480;19.216;2023-11-21T06:12:52;5.70;99.90
25877;DHT22;13692;47.480;19.216;2023-11-21T06:15:19;5.70;99.90
25877;DHT22;13692;47.480;19.216;2023-11-21T06:17:48;5.80;99.90
25877;DHT22;13692;47.480;19.216;2023-11-21T06:20:19;5.80;99.90
25877;DHT22;13692;47.480;19.216;2023-11-21T06:22:48;5.90;99.90
25877;DHT22;13692;47.480;19.216;2023-11-21T06:25:17;5.90;99.90
25877;DHT22;13692;47.480;19.216;2023-11-21T06:27:48;5.90;99.90
25877;DHT22;13692;47.480;19.216;2023-11-21T06:30:15;6.00;99.90
25877;DHT22;13692;47.480;19.216;2023-11-21T06:32:43;6.00;99.90
25877;DHT22;13692;47.480;19.216;2023-11-21T06:35:14;6.00;99.90
25877;DHT22;13692;47.480;19.216;2023-11-21T06:37:44;6.00;99.90
25877;DHT22;13692;47.480;19.216;2023-11-21T06:40:19;6.00;99.90
25877;DHT22;13692;47.480;19.216;2023-11-21T06:42:47;6.10;99.90
25877;DHT22;13692;47.480;19.216;2023-11-21T06:45:15;6.10;99.90
25877;DHT22;13692;47.480;19.216;2023-11-21T06:47:42;6.20;99.90
25877;DHT22;13692;47.480;19.216;2023-11-21T06:50:10;6.20;99.90
25877;DHT22;13692;47.480;19.216;2023-11-21T06:52:37;6.30;99.90
25877;DHT22;13692;47.480;19.216;2023-11-21T06:55:06;6.30;99.90
25877;DHT22;13692;47.480;19.216;2023-11-21T06:57:36;6.30;99.90
25877;DHT22;13692;47.480;19.216;2023-11-21T07:00:03;6.30;99.90
25877;DHT22;13692;47.480;19.216;2023-11-21T07:02:30;6.40;99.90
25877;DHT22;13692;47.480;19.216;2023-11-21T07:04:58;6.50;99.90
25877;DHT22;13692;47.480;19.216;2023-11-21T07:07:25;6.60;99.90
25877;DHT22;13692;47.480;19.216;2023-11-21T07:09:52;6.60;99.90
25877;DHT22;13692;47.480;19.216;2023-11-21T07:12:19;6.70;99.90
25877;DHT22;13692;47.480;19.216;2023-11-21T07:14:46;6.70;99.90
25877;DHT22;13692;47.480;19.216;2023-11-21T07:17:13;6.70;99.90
25877;DHT22;13692;47.480;19.216;2023-11-21T07:19:40;6.80;99.90
25877;DHT22;13692;47.480;19.216;2023-11-21T07:22:08;6.80;99.90
25877;DHT22;13692;47.480;19.216;2023-11-21T07:24:36;6.80;99.90
25877;DHT22;13692;47.480;19.216;2023-11-21T07:27:03;6.80;99.90
25877;DHT22;13692;47.480;19.216;2023-11-21T07:29:31;6.90;99.90
25877;DHT22;13692;47.480;19.216;2023-11-21T07:31:58;6.90;99.90
25877;DHT22;13692;47.480;19.216;2023-11-21T07:34:25;7.00;99.90
25877;DHT22;13692;47.480;19.216;2023-11-21T07:36:52;7.00;99.90
25877;DHT22;13692;47.480;19.216;2023-11-21T07:39:19;7.00;99.90
25877;DHT22;13692;47.480;19.216;2023-11-21T07:41:46;7.10;99.90
25877;DHT22;13692;47.480;19.216;2023-11-21T07:44:19;7.10;99.90
25877;DHT22;13692;47.480;19.216;2023-11-21T07:46:47;7.10;99.90
25877;DHT22;13692;47.480;19.216;2023-11-21T07:49:15;7.10;99.90
25877;DHT22;13692;47.480;19.216;2023-11-21T07:51:47;7.10;99.90
25877;DHT22;13692;47.480;19.216;2023-11-21T07:54:16;7.10;99.90
25877;DHT22;13692;47.480;19.216;2023-11-21T07:56:43;7.10;99.90
25877;DHT22;13692;47.480;19.216;2023-11-21T07:59:10;7.20;99.90
25877;DHT22;13692;47.480;19.216;2023-11-21T08:01:37;7.20;99.90
25877;DHT22;13692;47.480;19.216;2023-11-21T08:04:04;7.20;99.90
25877;DHT22;13692;47.480;19.216;2023-11-21T08:06:33;7.30;99.90
25877;DHT22;13692;47.480;19.216;2023-11-21T08:09:00;7.30;99.90
25877;DHT22;13692;47.480;19.216;2023-11-21T08:11:27;7.30;99.90
25877;DHT22;13692;47.480;19.216;2023-11-21T08:13:56;7.30;99.90
25877;DHT22;13692;47.480;19.216;2023-11-21T08:16:24;7.40;99.90
25877;DHT22;13692;47.480;19.216;2023-11-21T08:18:51;7.40;99.90
25877;DHT22;13692;47.480;19.216;2023-11-21T08:21:18;7.50;99.90
25877;DHT22;13692;47.480;19.216;2023-11-21T08:23:46;7.60;99.90
25877;DHT22;13692;47.480;19.216;2023-11-21T08:26:16;7.60;99.90
25877;DHT22;13692;47.480;19.216;2023-11-21T08:28:43;7.60;99.90
25877;DHT22;13692;47.480;19.216;2023-11-21T08:31:10;7.60;99.90
25877;DHT22;13692;47.480;19.216;2023-11-21T08:33:40;7.70;99.90
25877;DHT22;13692;47.480;19.216;2023-11-21T08:36:10;7.70;99.90
25877;DHT22;13692;47.480;19.216;2023-11-21T08:38:39;7.70;99.90
25877;DHT22;13692;47.480;19.216;2023-11-21T08:41:06;7.80;99.90
25877;DHT22;13692;47.480;19.216;2023-11-21T08:43:37;7.80;99.90
25877;DHT22;13692;47.480;19.216;2023-11-21T08:46:07;7.80;99.90
25877;DHT22;13692;47.480;19.216;2023-11-21T08:48:36;7.80;99.90
25877;DHT22;13692;47.480;19.216;2023-11-21T08:51:04;7.80;99.90
25877;DHT22;13692;47.480;19.216;2023-11-21T08:53:31;7.80;99.90
25877;DHT22;13692;47.480;19.216;2023-11-21T08:55:58;7.90;99.90
25877;DHT22;13692;47.480;19.216;2023-11-21T08:58:25;8.00;99.90
25877;DHT22;13692;47.480;19.216;2023-11-21T09:00:52;8.10;99.90
25877;DHT22;13692;47.480;19.216;2023-11-21T09:03:19;8.10;99.90
25877;DHT22;13692;47.480;19.216;2023-11-21T09:05:47;8.20;99.90
25877;DHT22;13692;47.480;19.216;2023-11-21T09:08:14;8.20;99.90
25877;DHT22;13692;47.480;19.216;2023-11-21T09:10:40;8.20;99.90
25877;DHT22;13692;47.480;19.216;2023-11-21T09:13:10;8.20;99.90
25877;DHT22;13692;47.480;19.216;2023-11-21T09:15:37;8.30;99.90
25877;DHT22;13692;47.480;19.216;2023-11-21T09:18:04;8.30;99.90
25877;DHT22;13692;47.480;19.216;2023-11-21T09:20:32;8.40;99.90
25877;DHT22;13692;47.480;19.216;2023-11-21T09:22:59;8.40;99.90
25877;DHT22;13692;47.480;19.216;2023-11-21T09:25:26;8.50;99.90
25877;DHT22;13692;47.480;19.216;2023-11-21T09:27:53;8.50;99.90
25877;DHT22;13692;47.480;19.216;2023-11-21T09:30:20;8.50;99.90
25877;DHT22;13692;47.480;19.216;2023-11-21T09:32:46;8.40;99.90
25877;DHT22;13692;47.480;19.216;2023-11-21T09:35:14;8.50;99.90
25877;DHT22;13692;47.480;19.216;2023-11-21T09:37:43;8.50;99.90
25877;DHT22;13692;47.480;19.216;2023-11-21T09:40:12;8.50;99.90
25877;DHT22;13692;47.480;19.216;2023-11-21T09:45:28;8.60;99.90
25877;DHT22;13692;47.480;19.216;2023-11-21T09:47:56;8.70;99.90
25877;DHT22;13692;47.480;19.216;2023-11-21T09:50:24;8.70;99.90
25877;DHT22;13692;47.480;19.216;2023-11-21T09:53:18;8.80;99.90
25877;DHT22;13692;47.480;19.216;2023-11-21T09:55:51;8.80;99.90
25877;DHT22;13692;47.480;19.216;2023-11-21T09:58:19;8.80;99.90
25877;DHT22;13692;47.480;19.216;2023-11-21T10:00:49;8.80;99.90
25877;DHT22;13692;47.480;19.216;2023-11-21T10:03:19;8.80;99.90
25877;DHT22;13692;47.480;19.216;2023-11-21T10:05:48;8.80;99.90
25877;DHT22;13692;47.480;19.216;2023-11-21T10:08:17;8.90;99.90
25877;DHT22;13692;47.480;19.216;2023-11-21T10:10:49;8.90;99.90
25877;DHT22;13692;47.480;19.216;2023-11-21T10:13:18;8.90;99.90
25877;DHT22;13692;47.480;19.216;2023-11-21T10:15:50;8.90;99.90
25877;DHT22;13692;47.480;19.216;2023-11-21T10:18:19;8.90;99.90
25877;DHT22;13692;47.480;19.216;2023-11-21T10:20:46;8.90;99.90
25877;DHT22;13692;47.480;19.216;2023-11-21T10:23:20;8.90;99.90
25877;DHT22;13692;47.480;19.216;2023-11-21T10:25:48;8.90;99.90
25877;DHT22;13692;47.480;19.216;2023-11-21T10:28:16;8.80;99.90
25877;DHT22;13692;47.480;19.216;2023-11-21T10:30:43;8.80;99.90
25877;DHT22;13692;47.480;19.216;2023-11-21T10:33:11;8.70;99.90
25877;DHT22;13692;47.480;19.216;2023-11-21T10:35:46;8.70;99.90
25877;DHT22;13692;47.480;19.216;2023-11-21T10:38:22;8.70;99.90
25877;DHT22;13692;47.480;19.216;2023-11-21T10:40:51;8.80;99.90
25877;DHT22;13692;47.480;19.216;2023-11-21T10:43:19;8.90;99.90
25877;DHT22;13692;47.480;19.216;2023-11-21T10:45:47;9.00;99.90
25877;DHT22;13692;47.480;19.216;2023-11-21T10:48:15;9.00;99.90
25877;DHT22;13692;47.480;19.216;2023-11-21T10:50:45;9.00;99.90
25877;DHT22;13692;47.480;19.216;2023-11-21T10:53:12;9.10;99.90
25877;DHT22;13692;47.480;19.216;2023-11-21T10:55:40;9.10;99.90
25877;DHT22;13692;47.480;19.216;2023-11-21T10:58:07;9.20;99.90
25877;DHT22;13692;47.480;19.216;2023-11-21T11:00:37;9.30;99.90
25877;DHT22;13692;47.480;19.216;2023-11-21T11:03:07;9.30;99.90
25877;DHT22;13692;47.480;19.216;2023-11-21T11:05:43;9.40;99.90
25877;DHT22;13692;47.480;19.216;2023-11-21T11:08:21;9.40;99.90
25877;DHT22;13692;47.480;19.216;2023-11-21T11:10:55;9.50;99.90
25877;DHT22;13692;47.480;19.216;2023-11-21T11:13:22;9.60;99.90
25877;DHT22;13692;47.480;19.216;2023-11-21T11:15:50;9.60;99.90
25877;DHT22;13692;47.480;19.216;2023-11-21T11:18:18;9.60;99.90
25877;DHT22;13692;47.480;19.216;2023-11-21T11:20:50;9.60;99.90
25877;DHT22;13692;47.480;19.216;2023-11-21T11:26:56;9.70;99.90
25877;DHT22;13692;47.480;19.216;2023-11-21T11:32:25;9.70;99.90
25877;DHT22;13692;47.480;19.216;2023-11-21T11:37:27;9.80;99.90
25877;DHT22;13692;47.480;19.216;2023-11-21T11:39:55;9.80;99.90
25877;DHT22;13692;47.480;19.216;2023-11-21T11:42:22;9.80;99.90
25877;DHT22;13692;47.480;19.216;2023-11-21T11:44:51;9.80;99.90
25877;DHT22;13692;47.480;19.216;2023-11-21T11:47:25;9.80;99.90
25877;DHT22;13692;47.480;19.216;2023-11-21T11:55:03;9.90;99.90
25877;DHT22;13692;47.480;19.216;2023-11-21T11:57:31;9.90;99.90
25877;DHT22;13692;47.480;19.216;2023-11-21T12:02:39;9.90;99.90
25877;DHT22;13692;47.480;19.216;2023-11-21T12:05:14;10.00;99.90
25877;DHT22;13692;47.480;19.216;2023-11-21T12:07:50;10.00;99.90
25877;DHT22;13692;47.480;19.216;2023-11-21T12:10:27;10.00;99.90
25877;DHT22;13692;47.480;19.216;2023-11-21T12:12:56;10.00;99.90
25877;DHT22;13692;47.480;19.216;2023-11-21T12:15:24;10.10;99.90
25877;DHT22;13692;47.480;19.216;2023-11-21T12:17:52;10.10;99.90
25877;DHT22;13692;47.480;19.216;2023-11-21T12:20:21;10.10;99.90
25877;DHT22;13692;47.480;19.216;2023-11-21T12:22:53;10.10;99.90
25877;DHT22;13692;47.480;19.216;2023-11-21T12:27:50;10.10;99.90
25877;DHT22;13692;47.480;19.216;2023-11-21T12:30:19;10.10;99.90
25877;DHT22;13692;47.480;19.216;2023-11-21T12:32:51;10.10;99.90
25877;DHT22;13692;47.480;19.216;2023-11-21T12:35:19;10.20;99.90
25877;DHT22;13692;47.480;19.216;2023-11-21T12:37:47;10.10;99.90
25877;DHT22;13692;47.480;19.216;2023-11-21T12:40:16;10.10;99.90
25877;DHT22;13692;47.480;19.216;2023-11-21T12:42:55;10.10;99.90
25877;DHT22;13692;47.480;19.216;2023-11-21T12:45:24;10.10;99.90
25877;DHT22;13692;47.480;19.216;2023-11-21T12:47:56;10.10;99.90
25877;DHT22;13692;47.480;19.216;2023-11-21T12:50:28;10.10;99.90
25877;DHT22;13692;47.480;19.216;2023-11-21T12:53:03;10.20;99.90
25877;DHT22;13692;47.480;19.216;2023-11-21T12:55:33;10.20;99.90
25877;DHT22;13692;47.480;19.216;2023-11-21T12:58:07;10.20;99.90
25877;DHT22;13692;47.480;19.216;2023-11-21T13:00:46;10.20;99.90
25877;DHT22;13692;47.480;19.216;2023-11-21T13:03:15;10.20;99.90
25877;DHT22;13692;47.480;19.216;2023-11-21T13:05:47;10.20;99.90
25877;DHT22;13692;47.480;19.216;2023-11-21T13:08:21;10.20;99.90
25877;DHT22;13692;47.480;19.216;2023-11-21T13:10:52;10.20;99.90
25877;DHT22;13692;47.480;19.216;2023-11-21T13:13:21;10.20;99.90
25877;DHT22;13692;47.480;19.216;2023-11-21T13:15:54;10.20;99.90
25877;DHT22;13692;47.480;19.216;2023-11-21T13:18:25;10.30;99.90
25877;DHT22;13692;47.480;19.216;2023-11-21T13:20:59;10.30;99.90
25877;DHT22;13692;47.480;19.216;2023-11-21T13:23:26;10.30;99.90
25877;DHT22;13692;47.480;19.216;2023-11-21T13:25:55;10.30;99.90
25877;DHT22;13692;47.480;19.216;2023-11-21T13:28:31;10.30;99.90
25877;DHT22;13692;47.480;19.216;2023-11-21T13:31:01;10.30;99.90
25877;DHT22;13692;47.480;19.216;2023-11-21T13:33:29;10.20;99.90
25877;DHT22;13692;47.480;19.216;2023-11-21T13:35:57;10.20;99.90
25877;DHT22;13692;47.480;19.216;2023-11-21T13:38:24;10.20;99.90
25877;DHT22;13692;47.480;19.216;2023-11-21T13:40:52;10.20;99.90
25877;DHT22;13692;47.480;19.216;2023-11-21T13:43:24;10.20;99.90
25877;DHT22;13692;47.480;19.216;2023-11-21T13:45:53;10.10;99.90
25877;DHT22;13692;47.480;19.216;2023-11-21T13:48:30;10.10;99.90
25877;DHT22;13692;47.480;19.216;2023-11-21T13:51:07;10.10;99.90
25877;DHT22;13692;47.480;19.216;2023-11-21T13:53:45;10.00;99.90
25877;DHT22;13692;47.480;19.216;2023-11-21T13:56:15;10.00;99.90
25877;DHT22;13692;47.480;19.216;2023-11-21T13:58:52;10.00;99.90
25877;DHT22;13692;47.480;19.216;2023-11-21T14:01:22;10.00;99.90
25877;DHT22;13692;47.480;19.216;2023-11-21T14:03:59;10.10;99.90
25877;DHT22;13692;47.480;19.216;2023-11-21T14:06:40;10.10;99.90
25877;DHT22;13692;47.480;19.216;2023-11-21T14:09:12;10.10;99.90
25877;DHT22;13692;47.480;19.216;2023-11-21T14:11:40;10.00;99.90
25877;DHT22;13692;47.480;19.216;2023-11-21T14:14:14;10.00;99.90
25877;DHT22;13692;47.480;19.216;2023-11-21T14:16:41;10.00;99.90
25877;DHT22;13692;47.480;19.216;2023-11-21T14:19:09;10.00;99.90
25877;DHT22;13692;47.480;19.216;2023-11-21T14:21:45;9.90;99.90
25877;DHT22;13692;47.480;19.216;2023-11-21T14:24:13;9.90;99.90
25877;DHT22;13692;47.480;19.216;2023-11-21T14:26:41;9.90;99.90
25877;DHT22;13692;47.480;19.216;2023-11-21T14:29:09;9.80;99.90
25877;DHT22;13692;47.480;19.216;2023-11-21T14:31:41;9.80;99.90
25877;DHT22;13692;47.480;19.216;2023-11-21T14:34:08;9.80;99.90
25877;DHT22;13692;47.480;19.216;2023-11-21T14:36:35;9.70;99.90
25877;DHT22;13692;47.480;19.216;2023-11-21T14:39:03;9.70;99.90
25877;DHT22;13692;47.480;19.216;2023-11-21T14:41:35;9.60;99.90
25877;DHT22;13692;47.480;19.216;2023-11-21T14:44:05;9.50;99.90
25877;DHT22;13692;47.480;19.216;2023-11-21T14:46:34;9.40;99.90
25877;DHT22;13692;47.480;19.216;2023-11-21T14:49:03;9.40;99.90
25877;DHT22;13692;47.480;19.216;2023-11-21T14:51:51;9.30;99.90
25877;DHT22;13692;47.480;19.216;2023-11-21T14:54:29;9.30;99.90
25877;DHT22;13692;47.480;19.216;2023-11-21T14:57:08;9.20;99.90
25877;DHT22;13692;47.480;19.216;2023-11-21T14:59:44;9.20;99.90
25877;DHT22;13692;47.480;19.216;2023-11-21T15:02:19;9.10;99.90
25877;DHT22;13692;47.480;19.216;2023-11-21T15:05:10;9.10;99.90
25877;DHT22;13692;47.480;19.216;2023-11-21T15:07:43;9.00;99.90
25877;DHT22;13692;47.480;19.216;2023-11-21T15:10:12;8.90;99.90
25877;DHT22;13692;47.480;19.216;2023-11-21T15:12:43;8.80;99.90
25877;DHT22;13692;47.480;19.216;2023-11-21T15:15:11;8.80;99.90
25877;DHT22;13692;47.480;19.216;2023-11-21T15:17:41;8.70;99.90
25877;DHT22;13692;47.480;19.216;2023-11-21T15:20:10;8.70;99.90
25877;DHT22;13692;47.480;19.216;2023-11-21T15:22:39;8.70;99.90
25877;DHT22;13692;47.480;19.216;2023-11-21T15:25:07;8.60;99.90
25877;DHT22;13692;47.480;19.216;2023-11-21T15:27:37;8.50;99.90
25877;DHT22;13692;47.480;19.216;2023-11-21T15:30:05;8.50;99.90
25877;DHT22;13692;47.480;19.216;2023-11-21T15:32:32;8.40;99.90
25877;DHT22;13692;47.480;19.216;2023-11-21T15:34:59;8.40;99.90
25877;DHT22;13692;47.480;19.216;2023-11-21T15:37:26;8.30;99.90
25877;DHT22;13692;47.480;19.216;2023-11-21T15:39:55;8.20;99.90
25877;DHT22;13692;47.480;19.216;2023-11-21T15:42:22;8.20;99.90
25877;DHT22;13692;47.480;19.216;2023-11-21T15:44:49;8.20;99.90
25877;DHT22;13692;47.480;19.216;2023-11-21T15:47:18;8.10;99.90
25877;DHT22;13692;47.480;19.216;2023-11-21T15:49:45;8.00;99.90
25877;DHT22;13692;47.480;19.216;2023-11-21T15:52:16;8.00;99.90
25877;DHT22;13692;47.480;19.216;2023-11-21T15:54:44;7.90;99.90
25877;DHT22;13692;47.480;19.216;2023-11-21T15:57:13;7.90;99.90
25877;DHT22;13692;47.480;19.216;2023-11-21T15:59:41;7.90;99.90
25877;DHT22;13692;47.480;19.216;2023-11-21T16:02:10;7.80;99.90